sensor_id;sensor_type;location;lat;lon;timestamp;pressure;altitude;pressure_sealevel;temperature;humidity
10464;BME280;5279;42.048;24.638;2024-01-30T00:00:22;99514.03;;;3.03;58.95
10464;BME280;5279;42.048;24.638;2024-01-30T00:02:49;99520.66;;;2.87;60.14
10464;BME280;5279;42.048;24.638;2024-01-30T00:05:16;99524.38;;;2.80;61.64
10464;BME280;5279;42.048;24.638;2024-01-30T00:07:43;99535.22;;;2.69;59.46
10464;BME280;5279;42.048;24.638;2024-01-30T00:10:10;99528.72;;;2.53;59.92
10464;BME280;5279;42.048;24.638;2024-01-30T00:12:38;99523.13;;;2.38;61.12
10464;BME280;5279;42.048;24.638;2024-01-30T00:15:05;99525.06;;;2.31;60.78
10464;BME280;5279;42.048;24.638;2024-01-30T00:17:35;99529.25;;;2.09;60.87
10464;BME280;5279;42.048;24.638;2024-01-30T00:20:02;99532.38;;;1.91;60.98
10464;BME280;5279;42.048;24.638;2024-01-30T00:22:30;99529.97;;;1.83;61.13
10464;BME280;5279;42.048;24.638;2024-01-30T00:24:57;99528.28;;;1.82;60.68
10464;BME280;5279;42.048;24.638;2024-01-30T00:27:24;99537.72;;;1.86;60.44
10464;BME280;5279;42.048;24.638;2024-01-30T00:29:52;99535.47;;;1.74;61.58
10464;BME280;5279;42.048;24.638;2024-01-30T00:32:18;99544.72;;;1.55;61.84
10464;BME280;5279;42.048;24.638;2024-01-30T00:34:45;99537.13;;;1.46;63.40
10464;BME280;5279;42.048;24.638;2024-01-30T00:37:12;99537.09;;;1.47;64.69
10464;BME280;5279;42.048;24.638;2024-01-30T00:39:39;99531.66;;;1.55;64.84
10464;BME280;5279;42.048;24.638;2024-01-30T00:48:50;99544.03;;;1.48;64.30
10464;BME280;5279;42.048;24.638;2024-01-30T00:51:17;99546.75;;;1.44;64.59
10464;BME280;5279;42.048;24.638;2024-01-30T00:53:44;99539.84;;;1.43;65.15
10464;BME280;5279;42.048;24.638;2024-01-30T00:56:11;99545.06;;;1.43;65.37
10464;BME280;5279;42.048;24.638;2024-01-30T00:58:38;99550.13;;;1.49;66.21
10464;BME280;5279;42.048;24.638;2024-01-30T01:01:05;99545.72;;;1.49;66.16
10464;BME280;5279;42.048;24.638;2024-01-30T01:03:32;99539.75;;;1.46;67.71
10464;BME280;5279;42.048;24.638;2024-01-30T01:06:00;99537.31;;;1.40;66.62
10464;BME280;5279;42.048;24.638;2024-01-30T01:08:27;99538.28;;;1.36;66.45
10464;BME280;5279;42.048;24.638;2024-01-30T01:10:54;99529.47;;;1.40;67.23
10464;BME280;5279;42.048;24.638;2024-01-30T01:13:20;99526.03;;;1.38;66.29
10464;BME280;5279;42.048;24.638;2024-01-30T01:15:47;99534.00;;;1.33;66.64
10464;BME280;5279;42.048;24.638;2024-01-30T01:18:14;99529.84;;;1.25;66.01
10464;BME280;5279;42.048;24.638;2024-01-30T01:20:41;99531.66;;;1.23;64.96
10464;BME280;5279;42.048;24.638;2024-01-30T01:23:09;99533.59;;;1.15;66.36
10464;BME280;5279;42.048;24.638;2024-01-30T01:25:36;99530.16;;;1.13;66.52
10464;BME280;5279;42.048;24.638;2024-01-30T01:28:03;99517.16;;;1.11;67.09
10464;BME280;5279;42.048;24.638;2024-01-30T01:30:29;99520.47;;;1.18;66.93
10464;BME280;5279;42.048;24.638;2024-01-30T01:32:56;99516.84;;;1.23;66.68
10464;BME280;5279;42.048;24.638;2024-01-30T01:35:26;99516.13;;;1.17;66.62
10464;BME280;5279;42.048;24.638;2024-01-30T01:37:54;99521.75;;;1.35;65.79
10464;BME280;5279;42.048;24.638;2024-01-30T01:40:23;99517.16;;;1.43;65.23
10464;BME280;5279;42.048;24.638;2024-01-30T01:42:50;99524.00;;;1.49;65.23
10464;BME280;5279;42.048;24.638;2024-01-30T01:45:17;99524.00;;;1.49;65.48
10464;BME280;5279;42.048;24.638;2024-01-30T01:47:47;99510.09;;;1.47;65.43
10464;BME280;5279;42.048;24.638;2024-01-30T01:50:15;99516.88;;;1.54;65.11
10464;BME280;5279;42.048;24.638;2024-01-30T01:52:44;99510.97;;;1.47;65.83
10464;BME280;5279;42.048;24.638;2024-01-30T01:55:12;99511.84;;;1.46;66.63
10464;BME280;5279;42.048;24.638;2024-01-30T01:57:41;99516.34;;;1.41;67.09
10464;BME280;5279;42.048;24.638;2024-01-30T02:00:09;99506.84;;;1.39;67.56
10464;BME280;5279;42.048;24.638;2024-01-30T02:02:36;99509.19;;;1.16;67.85
10464;BME280;5279;42.048;24.638;2024-01-30T02:05:03;99518.25;;;1.02;67.54
10464;BME280;5279;42.048;24.638;2024-01-30T02:07:30;99507.84;;;1.01;66.98
10464;BME280;5279;42.048;24.638;2024-01-30T02:09:57;99510.38;;;1.04;66.93
10464;BME280;5279;42.048;24.638;2024-01-30T02:12:24;99506.31;;;0.92;68.00
10464;BME280;5279;42.048;24.638;2024-01-30T02:14:53;99515.03;;;0.91;67.51
10464;BME280;5279;42.048;24.638;2024-01-30T02:17:20;99507.50;;;0.81;67.78
10464;BME280;5279;42.048;24.638;2024-01-30T02:19:48;99510.06;;;0.82;67.46
10464;BME280;5279;42.048;24.638;2024-01-30T02:22:16;99514.22;;;0.91;67.33
10464;BME280;5279;42.048;24.638;2024-01-30T02:24:43;99507.34;;;0.87;67.98
10464;BME280;5279;42.048;24.638;2024-01-30T02:27:10;99508.22;;;0.87;68.47
10464;BME280;5279;42.048;24.638;2024-01-30T02:29:37;99506.25;;;0.95;68.17
10464;BME280;5279;42.048;24.638;2024-01-30T02:32:04;99504.28;;;1.05;67.93
10464;BME280;5279;42.048;24.638;2024-01-30T02:34:31;99505.94;;;1.07;67.97
10464;BME280;5279;42.048;24.638;2024-01-30T02:36:58;99507.75;;;1.05;68.24
10464;BME280;5279;42.048;24.638;2024-01-30T02:39:26;99514.56;;;1.11;68.31
10464;BME280;5279;42.048;24.638;2024-01-30T02:41:53;99512.97;;;1.05;68.19
10464;BME280;5279;42.048;24.638;2024-01-30T02:44:20;99515.28;;;1.16;68.63
10464;BME280;5279;42.048;24.638;2024-01-30T02:46:47;99512.56;;;1.21;69.35
10464;BME280;5279;42.048;24.638;2024-01-30T02:49:13;99510.59;;;1.29;69.11
10464;BME280;5279;42.048;24.638;2024-01-30T02:51:40;99516.66;;;1.31;67.88
10464;BME280;5279;42.048;24.638;2024-01-30T02:54:07;99518.50;;;1.26;68.81
10464;BME280;5279;42.048;24.638;2024-01-30T02:56:35;99514.34;;;1.19;69.37
10464;BME280;5279;42.048;24.638;2024-01-30T02:59:01;99510.13;;;1.15;69.21
10464;BME280;5279;42.048;24.638;2024-01-30T03:01:28;99517.72;;;1.24;67.50
10464;BME280;5279;42.048;24.638;2024-01-30T03:03:55;99516.13;;;1.17;68.24
10464;BME280;5279;42.048;24.638;2024-01-30T03:06:22;99517.63;;;1.27;67.40
10464;BME280;5279;42.048;24.638;2024-01-30T03:08:48;99514.03;;;1.31;68.54
10464;BME280;5279;42.048;24.638;2024-01-30T03:11:15;99521.94;;;1.28;68.53
10464;BME280;5279;42.048;24.638;2024-01-30T03:13:43;99525.47;;;1.25;68.84
10464;BME280;5279;42.048;24.638;2024-01-30T03:16:10;99523.53;;;1.33;68.44
10464;BME280;5279;42.048;24.638;2024-01-30T03:18:37;99525.06;;;1.42;68.70
10464;BME280;5279;42.048;24.638;2024-01-30T03:21:04;99530.06;;;1.49;69.38
10464;BME280;5279;42.048;24.638;2024-01-30T03:23:31;99523.75;;;1.58;68.85
10464;BME280;5279;42.048;24.638;2024-01-30T03:25:58;99525.28;;;1.65;68.94
10464;BME280;5279;42.048;24.638;2024-01-30T03:28:24;99525.19;;;1.68;69.79
10464;BME280;5279;42.048;24.638;2024-01-30T03:30:53;99516.47;;;1.69;69.50
10464;BME280;5279;42.048;24.638;2024-01-30T03:33:19;99521.59;;;1.72;71.03
10464;BME280;5279;42.048;24.638;2024-01-30T03:35:46;99517.22;;;1.73;70.40
10464;BME280;5279;42.048;24.638;2024-01-30T03:38:13;99514.69;;;1.70;69.79
10464;BME280;5279;42.048;24.638;2024-01-30T03:40:39;99514.81;;;1.65;69.48
10464;BME280;5279;42.048;24.638;2024-01-30T03:43:06;99516.72;;;1.60;70.04
10464;BME280;5279;42.048;24.638;2024-01-30T03:45:33;99521.03;;;1.61;70.32
10464;BME280;5279;42.048;24.638;2024-01-30T03:48:01;99519.16;;;1.66;71.41
10464;BME280;5279;42.048;24.638;2024-01-30T03:50:28;99521.69;;;1.69;70.97
10464;BME280;5279;42.048;24.638;2024-01-30T03:52:54;99516.38;;;1.72;69.65
10464;BME280;5279;42.048;24.638;2024-01-30T03:55:21;99518.91;;;1.75;67.85
10464;BME280;5279;42.048;24.638;2024-01-30T03:57:48;99524.91;;;1.77;66.88
10464;BME280;5279;42.048;24.638;2024-01-30T04:00:15;99523.31;;;1.73;68.24
10464;BME280;5279;42.048;24.638;2024-01-30T04:02:42;99525.75;;;1.79;67.88
10464;BME280;5279;42.048;24.638;2024-01-30T04:05:10;99522.97;;;1.85;68.67
10464;BME280;5279;42.048;24.638;2024-01-30T04:07:37;99519.44;;;1.86;68.19
10464;BME280;5279;42.048;24.638;2024-01-30T04:10:04;99516.81;;;1.86;68.13
10464;BME280;5279;42.048;24.638;2024-01-30T04:12:37;99522.78;;;1.91;67.71
10464;BME280;5279;42.048;24.638;2024-01-30T04:15:05;99526.28;;;1.90;68.10
10464;BME280;5279;42.048;24.638;2024-01-30T04:17:31;99528.91;;;1.90;67.88
10464;BME280;5279;42.048;24.638;2024-01-30T04:19:58;99534.06;;;1.92;68.12
10464;BME280;5279;42.048;24.638;2024-01-30T04:22:27;99540.25;;;1.89;71.08
10464;BME280;5279;42.048;24.638;2024-01-30T04:24:55;99535.19;;;1.83;72.77
10464;BME280;5279;42.048;24.638;2024-01-30T04:27:21;99527.53;;;1.77;73.48
10464;BME280;5279;42.048;24.638;2024-01-30T04:29:48;99533.69;;;1.76;73.30
10464;BME280;5279;42.048;24.638;2024-01-30T04:32:15;99538.25;;;1.68;71.83
10464;BME280;5279;42.048;24.638;2024-01-30T04:34:42;99528.81;;;1.64;70.52
10464;BME280;5279;42.048;24.638;2024-01-30T04:37:08;99531.31;;;1.67;70.46
10464;BME280;5279;42.048;24.638;2024-01-30T04:39:36;99528.81;;;1.64;70.40
10464;BME280;5279;42.048;24.638;2024-01-30T04:42:04;99532.50;;;1.55;71.20
10464;BME280;5279;42.048;24.638;2024-01-30T04:44:30;99534.38;;;1.52;72.18
10464;BME280;5279;42.048;24.638;2024-01-30T04:46:57;99539.41;;;1.58;70.81
10464;BME280;5279;42.048;24.638;2024-01-30T04:49:26;99546.25;;;1.62;69.95
10464;BME280;5279;42.048;24.638;2024-01-30T04:51:54;99542.59;;;1.69;70.38
10464;BME280;5279;42.048;24.638;2024-01-30T04:54:21;99547.72;;;1.72;69.04
10464;BME280;5279;42.048;24.638;2024-01-30T04:56:49;99554.69;;;1.73;69.86
10464;BME280;5279;42.048;24.638;2024-01-30T04:59:15;99553.75;;;1.74;69.63
10464;BME280;5279;42.048;24.638;2024-01-30T05:01:42;99547.63;;;1.75;68.24
10464;BME280;5279;42.048;24.638;2024-01-30T05:04:09;99557.22;;;1.76;68.04
10464;BME280;5279;42.048;24.638;2024-01-30T05:06:36;99561.59;;;1.74;68.28
10464;BME280;5279;42.048;24.638;2024-01-30T05:09:03;99560.63;;;1.78;67.45
10464;BME280;5279;42.048;24.638;2024-01-30T05:11:30;99561.44;;;1.80;66.01
10464;BME280;5279;42.048;24.638;2024-01-30T05:13:58;99555.41;;;1.78;67.04
10464;BME280;5279;42.048;24.638;2024-01-30T05:16:25;99550.38;;;1.71;70.34
10464;BME280;5279;42.048;24.638;2024-01-30T05:18:51;99550.44;;;1.67;70.85
10464;BME280;5279;42.048;24.638;2024-01-30T05:21:18;99554.69;;;1.73;70.25
10464;BME280;5279;42.048;24.638;2024-01-30T05:23:45;99554.69;;;1.73;69.74
10464;BME280;5279;42.048;24.638;2024-01-30T05:26:12;99559.69;;;1.81;69.90
10464;BME280;5279;42.048;24.638;2024-01-30T05:28:39;99558.88;;;1.79;71.27
10464;BME280;5279;42.048;24.638;2024-01-30T05:31:07;99554.69;;;1.73;72.14
10464;BME280;5279;42.048;24.638;2024-01-30T05:33:34;99561.06;;;1.61;73.55
10464;BME280;5279;42.048;24.638;2024-01-30T05:36:01;99553.44;;;1.54;74.13
10464;BME280;5279;42.048;24.638;2024-01-30T05:38:30;99548.47;;;1.45;76.18
10464;BME280;5279;42.048;24.638;2024-01-30T05:40:57;99556.00;;;1.55;75.38
10464;BME280;5279;42.048;24.638;2024-01-30T05:43:24;99558.25;;;1.69;73.88
10464;BME280;5279;42.048;24.638;2024-01-30T05:45:51;99566.75;;;1.77;74.59
10464;BME280;5279;42.048;24.638;2024-01-30T05:48:19;99562.28;;;1.81;74.53
10464;BME280;5279;42.048;24.638;2024-01-30T05:50:46;99563.75;;;1.91;75.25
10464;BME280;5279;42.048;24.638;2024-01-30T05:53:13;99565.69;;;1.83;75.89
10464;BME280;5279;42.048;24.638;2024-01-30T05:55:40;99562.44;;;1.76;75.61
10464;BME280;5279;42.048;24.638;2024-01-30T05:58:07;99562.53;;;1.72;73.79
10464;BME280;5279;42.048;24.638;2024-01-30T06:00:33;99560.72;;;1.75;73.12
10464;BME280;5279;42.048;24.638;2024-01-30T06:03:00;99564.19;;;1.76;71.67
10464;BME280;5279;42.048;24.638;2024-01-30T06:05:28;99570.03;;;1.85;71.34
10464;BME280;5279;42.048;24.638;2024-01-30T06:07:55;99561.25;;;1.86;71.38
10464;BME280;5279;42.048;24.638;2024-01-30T06:10:22;99557.41;;;1.99;70.55
10464;BME280;5279;42.048;24.638;2024-01-30T06:12:49;99571.00;;;2.10;70.31
10464;BME280;5279;42.048;24.638;2024-01-30T06:18:37;99566.09;;;2.29;69.92
10464;BME280;5279;42.048;24.638;2024-01-30T06:21:05;99582.38;;;2.39;69.48
10464;BME280;5279;42.048;24.638;2024-01-30T06:26:39;99564.59;;;2.50;68.49
10464;BME280;5279;42.048;24.638;2024-01-30T06:29:06;99571.84;;;2.42;67.83
10464;BME280;5279;42.048;24.638;2024-01-30T06:31:39;99566.59;;;2.42;67.30
10464;BME280;5279;42.048;24.638;2024-01-30T06:34:06;99563.28;;;2.37;68.28
10464;BME280;5279;42.048;24.638;2024-01-30T06:36:34;99577.09;;;2.40;68.29
10464;BME280;5279;42.048;24.638;2024-01-30T06:39:01;99569.06;;;2.46;69.79
10464;BME280;5279;42.048;24.638;2024-01-30T06:41:28;99570.66;;;2.52;69.37
10464;BME280;5279;42.048;24.638;2024-01-30T06:43:55;99578.13;;;2.64;69.15
10464;BME280;5279;42.048;24.638;2024-01-30T06:46:22;99577.84;;;2.73;68.01
10464;BME280;5279;42.048;24.638;2024-01-30T06:48:49;99586.28;;;2.83;67.39
10464;BME280;5279;42.048;24.638;2024-01-30T06:51:16;99590.47;;;2.88;66.71
10464;BME280;5279;42.048;24.638;2024-01-30T06:53:44;99584.09;;;2.95;65.31
10464;BME280;5279;42.048;24.638;2024-01-30T06:56:11;99587.44;;;3.00;65.26
10464;BME280;5279;42.048;24.638;2024-01-30T06:58:38;99584.28;;;2.89;65.77
10464;BME280;5279;42.048;24.638;2024-01-30T07:01:04;99587.56;;;2.97;65.33
10464;BME280;5279;42.048;24.638;2024-01-30T07:03:31;99583.81;;;3.04;64.26
10464;BME280;5279;42.048;24.638;2024-01-30T07:05:58;99590.47;;;3.14;63.88
10464;BME280;5279;42.048;24.638;2024-01-30T07:08:25;99587.00;;;3.14;64.61
10464;BME280;5279;42.048;24.638;2024-01-30T07:10:53;99586.75;;;3.21;64.66
10464;BME280;5279;42.048;24.638;2024-01-30T07:13:21;99592.50;;;3.06;65.71
10464;BME280;5279;42.048;24.638;2024-01-30T07:15:48;99582.31;;;2.97;65.02
10464;BME280;5279;42.048;24.638;2024-01-30T07:18:14;99589.88;;;3.06;65.00
10464;BME280;5279;42.048;24.638;2024-01-30T07:20:41;99586.09;;;3.15;64.87
10464;BME280;5279;42.048;24.638;2024-01-30T07:23:11;99589.41;;;3.20;64.33
10464;BME280;5279;42.048;24.638;2024-01-30T07:26:17;99583.88;;;3.29;64.38
10464;BME280;5279;42.048;24.638;2024-01-30T07:28:44;99591.50;;;3.35;65.74
10464;BME280;5279;42.048;24.638;2024-01-30T07:31:11;99590.63;;;3.36;67.77
10464;BME280;5279;42.048;24.638;2024-01-30T07:33:38;99584.41;;;3.39;66.67
10464;BME280;5279;42.048;24.638;2024-01-30T07:36:05;99587.94;;;3.38;67.33
10464;BME280;5279;42.048;24.638;2024-01-30T07:38:32;99580.91;;;3.40;66.66
10464;BME280;5279;42.048;24.638;2024-01-30T07:41:37;99583.44;;;3.41;67.59
10464;BME280;5279;42.048;24.638;2024-01-30T07:44:03;99588.03;;;3.35;62.23
10464;BME280;5279;42.048;24.638;2024-01-30T07:46:30;99584.72;;;3.29;62.06
10464;BME280;5279;42.048;24.638;2024-01-30T07:48:57;99595.81;;;3.11;60.48
10464;BME280;5279;42.048;24.638;2024-01-30T07:51:25;99596.97;;;3.03;57.96
10464;BME280;5279;42.048;24.638;2024-01-30T07:53:53;99598.50;;;2.82;58.42
10464;BME280;5279;42.048;24.638;2024-01-30T07:56:20;99597.72;;;2.51;59.02
10464;BME280;5279;42.048;24.638;2024-01-30T07:58:48;99595.41;;;2.40;59.68
10464;BME280;5279;42.048;24.638;2024-01-30T08:01:16;99593.94;;;2.32;58.59
10464;BME280;5279;42.048;24.638;2024-01-30T08:03:42;99597.72;;;2.22;59.61
10464;BME280;5279;42.048;24.638;2024-01-30T08:06:09;99592.63;;;2.17;59.90
10464;BME280;5279;42.048;24.638;2024-01-30T08:08:36;99591.72;;;2.18;60.12
10464;BME280;5279;42.048;24.638;2024-01-30T08:11:04;99593.47;;;2.17;60.02
10464;BME280;5279;42.048;24.638;2024-01-30T08:13:31;99591.38;;;2.30;58.62
10464;BME280;5279;42.048;24.638;2024-01-30T08:15:59;99595.28;;;2.45;59.31
10464;BME280;5279;42.048;24.638;2024-01-30T08:18:25;99593.56;;;2.44;58.63
10464;BME280;5279;42.048;24.638;2024-01-30T08:20:52;99589.06;;;2.49;57.96
10464;BME280;5279;42.048;24.638;2024-01-30T08:23:19;99588.59;;;2.64;58.69
10464;BME280;5279;42.048;24.638;2024-01-30T08:25:46;99584.03;;;2.70;58.51
10464;BME280;5279;42.048;24.638;2024-01-30T08:28:13;99588.50;;;2.67;57.72
10464;BME280;5279;42.048;24.638;2024-01-30T08:30:40;99586.31;;;2.81;57.30
10464;BME280;5279;42.048;24.638;2024-01-30T08:33:08;99582.31;;;2.97;57.41
10464;BME280;5279;42.048;24.638;2024-01-30T08:35:34;99587.34;;;3.03;56.33
10464;BME280;5279;42.048;24.638;2024-01-30T08:38:01;99587.06;;;3.12;56.52
10464;BME280;5279;42.048;24.638;2024-01-30T08:40:29;99586.34;;;3.34;56.24
10464;BME280;5279;42.048;24.638;2024-01-30T08:42:56;99588.53;;;3.19;55.58
10464;BME280;5279;42.048;24.638;2024-01-30T08:45:22;99584.34;;;3.15;56.53
10464;BME280;5279;42.048;24.638;2024-01-30T08:47:49;99590.22;;;3.22;56.16
10464;BME280;5279;42.048;24.638;2024-01-30T08:50:20;99585.13;;;3.17;55.51
10464;BME280;5279;42.048;24.638;2024-01-30T08:52:46;99584.94;;;3.23;55.57
10464;BME280;5279;42.048;24.638;2024-01-30T08:55:13;99581.00;;;3.37;54.87
10464;BME280;5279;42.048;24.638;2024-01-30T08:57:40;99576.00;;;3.55;54.75
10464;BME280;5279;42.048;24.638;2024-01-30T09:00:09;99579.84;;;3.70;53.46
10464;BME280;5279;42.048;24.638;2024-01-30T09:02:36;99582.69;;;4.12;54.25
10464;BME280;5279;42.048;24.638;2024-01-30T09:05:03;99582.88;;;4.30;51.53
10464;BME280;5279;42.048;24.638;2024-01-30T09:07:31;99587.09;;;4.34;50.75
10464;BME280;5279;42.048;24.638;2024-01-30T09:09:58;99575.53;;;4.62;50.79
10464;BME280;5279;42.048;24.638;2024-01-30T09:12:25;99573.75;;;4.84;50.64
10464;BME280;5279;42.048;24.638;2024-01-30T09:14:52;99579.38;;;4.96;49.93
10464;BME280;5279;42.048;24.638;2024-01-30T09:17:19;99572.59;;;5.13;49.09
10464;BME280;5279;42.048;24.638;2024-01-30T09:19:46;99572.03;;;5.05;48.04
10464;BME280;5279;42.048;24.638;2024-01-30T09:22:13;99576.25;;;4.87;48.97
10464;BME280;5279;42.048;24.638;2024-01-30T09:24:42;99571.72;;;4.92;48.88
10464;BME280;5279;42.048;24.638;2024-01-30T09:27:08;99576.22;;;5.10;49.12
10464;BME280;5279;42.048;24.638;2024-01-30T09:29:35;99564.84;;;5.10;49.38
10464;BME280;5279;42.048;24.638;2024-01-30T09:32:02;99572.16;;;5.23;47.92
10464;BME280;5279;42.048;24.638;2024-01-30T09:34:30;99570.47;;;5.01;47.42
10464;BME280;5279;42.048;24.638;2024-01-30T09:36:56;99564.97;;;4.63;47.51
10464;BME280;5279;42.048;24.638;2024-01-30T09:39:23;99564.94;;;4.41;48.36
10464;BME280;5279;42.048;24.638;2024-01-30T09:41:55;99557.41;;;4.56;48.77
10464;BME280;5279;42.048;24.638;2024-01-30T09:44:28;99555.44;;;4.61;48.43
10464;BME280;5279;42.048;24.638;2024-01-30T09:46:56;99546.66;;;4.62;48.51
10464;BME280;5279;42.048;24.638;2024-01-30T09:49:24;99551.50;;;4.27;49.30
10464;BME280;5279;42.048;24.638;2024-01-30T09:51:53;99539.97;;;4.31;49.78
10464;BME280;5279;42.048;24.638;2024-01-30T09:54:21;99544.31;;;4.54;49.62
10464;BME280;5279;42.048;24.638;2024-01-30T09:56:48;99538.47;;;4.69;48.86
10464;BME280;5279;42.048;24.638;2024-01-30T09:59:16;99545.09;;;4.56;48.01
10464;BME280;5279;42.048;24.638;2024-01-30T10:01:43;99543.16;;;4.39;48.28
10464;BME280;5279;42.048;24.638;2024-01-30T10:04:10;99528.06;;;4.45;48.18
10464;BME280;5279;42.048;24.638;2024-01-30T10:06:37;99537.59;;;4.69;48.65
10464;BME280;5279;42.048;24.638;2024-01-30T10:09:41;99536.63;;;4.71;47.97
10464;BME280;5279;42.048;24.638;2024-01-30T10:12:09;99536.09;;;4.85;47.79
10464;BME280;5279;42.048;24.638;2024-01-30T10:14:39;99527.72;;;5.17;47.92
10464;BME280;5279;42.048;24.638;2024-01-30T10:17:07;99529.91;;;5.48;47.75
10464;BME280;5279;42.048;24.638;2024-01-30T10:19:34;99526.69;;;5.41;47.23
10464;BME280;5279;42.048;24.638;2024-01-30T10:22:02;99524.06;;;5.62;46.63
10464;BME280;5279;42.048;24.638;2024-01-30T10:24:29;99522.84;;;5.69;46.37
10464;BME280;5279;42.048;24.638;2024-01-30T10:27:07;99527.84;;;5.75;45.98
10464;BME280;5279;42.048;24.638;2024-01-30T10:29:34;99518.91;;;5.79;46.37
10464;BME280;5279;42.048;24.638;2024-01-30T10:32:02;99527.56;;;5.81;46.09
10464;BME280;5279;42.048;24.638;2024-01-30T10:34:30;99529.66;;;5.74;46.12
10464;BME280;5279;42.048;24.638;2024-01-30T10:37:00;99520.63;;;5.60;46.17
10464;BME280;5279;42.048;24.638;2024-01-30T10:39:29;99523.00;;;5.66;45.39
10464;BME280;5279;42.048;24.638;2024-01-30T10:42:03;99522.56;;;5.56;45.37
10464;BME280;5279;42.048;24.638;2024-01-30T10:44:37;99517.72;;;5.66;45.41
10464;BME280;5279;42.048;24.638;2024-01-30T10:47:11;99516.31;;;5.59;45.52
10464;BME280;5279;42.048;24.638;2024-01-30T10:49:40;99521.16;;;5.68;46.51
10464;BME280;5279;42.048;24.638;2024-01-30T10:52:08;99514.84;;;5.72;46.93
10464;BME280;5279;42.048;24.638;2024-01-30T10:54:36;99523.66;;;5.91;45.49
10464;BME280;5279;42.048;24.638;2024-01-30T10:57:04;99519.97;;;5.95;45.67
10464;BME280;5279;42.048;24.638;2024-01-30T10:59:32;99527.31;;;6.07;45.10
10464;BME280;5279;42.048;24.638;2024-01-30T11:01:59;99514.03;;;6.10;44.75
10464;BME280;5279;42.048;24.638;2024-01-30T11:04:35;99518.84;;;6.00;45.91
10464;BME280;5279;42.048;24.638;2024-01-30T11:07:02;99511.88;;;6.18;45.34
10464;BME280;5279;42.048;24.638;2024-01-30T11:09:29;99514.75;;;6.14;45.31
10464;BME280;5279;42.048;24.638;2024-01-30T11:11:57;99511.38;;;6.10;44.84
10464;BME280;5279;42.048;24.638;2024-01-30T11:14:26;99520.53;;;6.20;44.60
10464;BME280;5279;42.048;24.638;2024-01-30T11:16:57;99504.47;;;6.26;44.62
10464;BME280;5279;42.048;24.638;2024-01-30T11:19:24;99516.44;;;6.33;44.57
10464;BME280;5279;42.048;24.638;2024-01-30T11:21:53;99510.72;;;6.42;44.80
10464;BME280;5279;42.048;24.638;2024-01-30T11:24:22;99512.59;;;6.40;43.57
10464;BME280;5279;42.048;24.638;2024-01-30T11:26:55;99508.19;;;6.22;43.54
10464;BME280;5279;42.048;24.638;2024-01-30T11:29:24;99505.13;;;6.13;44.10
10464;BME280;5279;42.048;24.638;2024-01-30T11:31:54;99504.22;;;6.14;43.56
10464;BME280;5279;42.048;24.638;2024-01-30T11:34:21;99505.47;;;6.24;43.49
10464;BME280;5279;42.048;24.638;2024-01-30T11:36:58;99506.31;;;6.43;42.97
10464;BME280;5279;42.048;24.638;2024-01-30T11:40:02;99497.38;;;6.47;43.24
10464;BME280;5279;42.048;24.638;2024-01-30T11:42:30;99494.50;;;6.51;43.07
10464;BME280;5279;42.048;24.638;2024-01-30T11:44:59;99484.94;;;6.68;43.08
10464;BME280;5279;42.048;24.638;2024-01-30T11:47:26;99478.63;;;6.89;42.81
10464;BME280;5279;42.048;24.638;2024-01-30T11:49:53;99484.22;;;7.17;42.55
10464;BME280;5279;42.048;24.638;2024-01-30T11:52:22;99482.56;;;7.82;41.68
10464;BME280;5279;42.048;24.638;2024-01-30T11:54:48;99474.81;;;9.77;38.41
10464;BME280;5279;42.048;24.638;2024-01-30T11:57:15;99469.44;;;10.62;36.37
10464;BME280;5279;42.048;24.638;2024-01-30T11:59:42;99463.22;;;10.49;35.49
10464;BME280;5279;42.048;24.638;2024-01-30T12:02:15;99449.94;;;10.90;35.44
10464;BME280;5279;42.048;24.638;2024-01-30T12:04:42;99454.75;;;11.87;33.35
10464;BME280;5279;42.048;24.638;2024-01-30T12:07:08;99446.47;;;13.47;31.83
10464;BME280;5279;42.048;24.638;2024-01-30T12:09:36;99443.88;;;12.99;30.68
10464;BME280;5279;42.048;24.638;2024-01-30T12:12:04;99436.03;;;12.01;32.54
10464;BME280;5279;42.048;24.638;2024-01-30T12:14:31;99428.84;;;11.01;33.41
10464;BME280;5279;42.048;24.638;2024-01-30T12:16:58;99434.25;;;10.60;33.37
10464;BME280;5279;42.048;24.638;2024-01-30T12:19:25;99433.66;;;10.28;34.17
10464;BME280;5279;42.048;24.638;2024-01-30T12:21:55;99423.97;;;10.41;34.76
10464;BME280;5279;42.048;24.638;2024-01-30T12:24:22;99409.19;;;12.53;32.60
10464;BME280;5279;42.048;24.638;2024-01-30T12:26:50;99408.09;;;13.03;30.17
10464;BME280;5279;42.048;24.638;2024-01-30T12:29:17;99404.13;;;13.77;30.23
10464;BME280;5279;42.048;24.638;2024-01-30T12:31:44;99397.31;;;14.40;28.45
10464;BME280;5279;42.048;24.638;2024-01-30T12:34:13;99388.28;;;15.36;28.10
10464;BME280;5279;42.048;24.638;2024-01-30T12:36:41;99397.38;;;15.65;26.68
10464;BME280;5279;42.048;24.638;2024-01-30T12:39:11;99393.50;;;15.17;26.98
10464;BME280;5279;42.048;24.638;2024-01-30T12:41:38;99388.66;;;16.03;25.95
10464;BME280;5279;42.048;24.638;2024-01-30T12:44:06;99383.50;;;16.89;25.68
10464;BME280;5279;42.048;24.638;2024-01-30T12:46:36;99383.50;;;18.66;23.88
10464;BME280;5279;42.048;24.638;2024-01-30T12:49:02;99372.72;;;20.71;22.03
10464;BME280;5279;42.048;24.638;2024-01-30T12:51:29;99374.38;;;20.56;21.42
10464;BME280;5279;42.048;24.638;2024-01-30T12:53:56;99386.81;;;17.59;23.32
10464;BME280;5279;42.048;24.638;2024-01-30T12:56:23;99377.41;;;16.09;25.11
10464;BME280;5279;42.048;24.638;2024-01-30T12:58:50;99378.97;;;15.10;26.63
10464;BME280;5279;42.048;24.638;2024-01-30T13:01:18;99384.56;;;15.69;26.89
10464;BME280;5279;42.048;24.638;2024-01-30T13:03:44;99379.03;;;15.61;26.04
10464;BME280;5279;42.048;24.638;2024-01-30T13:06:11;99370.59;;;14.62;27.04
10464;BME280;5279;42.048;24.638;2024-01-30T13:08:38;99387.78;;;13.93;28.11
10464;BME280;5279;42.048;24.638;2024-01-30T13:11:05;99390.47;;;12.55;29.54
10464;BME280;5279;42.048;24.638;2024-01-30T13:13:32;99382.94;;;11.76;31.02
10464;BME280;5279;42.048;24.638;2024-01-30T13:15:59;99382.28;;;10.70;32.14
10464;BME280;5279;42.048;24.638;2024-01-30T13:18:27;99380.66;;;9.87;33.93
10464;BME280;5279;42.048;24.638;2024-01-30T13:20:54;99383.88;;;9.50;34.51
10464;BME280;5279;42.048;24.638;2024-01-30T13:23:20;99387.66;;;9.60;34.55
10464;BME280;5279;42.048;24.638;2024-01-30T13:25:47;99387.28;;;9.38;34.61